Terminal Aerodrome Forecast
Issued by NWS Atlanta, GA

Home | Current Version | Previous Version | Text Only | Print | Product List | Glossary On
Versions: 1 2 3 4 5 6 7 8 9 10 11 12 13 14 15 16 17 18 19 20 21
000
FTUS42 KFFC 010500 RRA
TAFMCN
TAF
KMCN 010542Z 0106/0206 00000KT P6SM FEW060 FEW150
      TEMPO 0109/0113 4SM BR
     FM011400 VRB03KT P6SM SCT030 SCT150
     FM011800 25003KT P6SM SCT050 SCT150 PROB30 0120/0124 -TSRA
      BKN050CB
     FM020100 00000KT P6SM FEW060 SCT150=

USA.gov is the U.S. government's official web portal to all federal, state and local government web resources and services.